ANA113 ROAH-RJFF
Flight info
| Callsign | ANA113 |
|---|---|
| Flight time | 1h 29m |
| Altitude | 39000 |
| Route | AMAMI Y25 ISKUP |
| Aircraft | B772/H-SDE2E3FGHIJ5LORVWXY/LB1D1 |
Departure
| Time | 2026-04-25 06:37 |
|---|---|
| Airport | Naha International Airport (ROAH) |
Arrival
| Time | 2026-04-25 08:07 |
|---|---|
| Airport | Fukuoka Airport (RJFF) |
| Time | Latitude | Longitude | Altitude | Speed | Heading |
|---|---|---|---|---|---|
| 2026-04-25 06:05 | 26.20436 | 127.64859 | 29 ft | 0 kts | 47° |
| 2026-04-25 06:06 | 26.20437 | 127.64860 | 29 ft | 0 kts | 47° |
| 2026-04-25 06:19 | 26.20431 | 127.64854 | 29 ft | 4 kts | 47° |
| 2026-04-25 06:20 | 26.20415 | 127.64834 | 28 ft | 2 kts | 47° |
| 2026-04-25 06:20 | 26.20396 | 127.64815 | 29 ft | 4 kts | 28° |
| 2026-04-25 06:20 | 26.20373 | 127.64808 | 28 ft | 4 kts | 345° |
| 2026-04-25 06:20 | 26.20354 | 127.64822 | 29 ft | 4 kts | 284° |
| 2026-04-25 06:21 | 26.20353 | 127.64851 | 30 ft | 4 kts | 268° |
| 2026-04-25 06:21 | 26.20354 | 127.64862 | 30 ft | 0 kts | 268° |
| 2026-04-25 06:25 | 26.20354 | 127.64856 | 26 ft | 4 kts | 268° |
| 2026-04-25 06:26 | 26.20351 | 127.64782 | 23 ft | 14 kts | 268° |
| 2026-04-25 06:26 | 26.20347 | 127.64669 | 25 ft | 15 kts | 268° |
| 2026-04-25 06:26 | 26.20344 | 127.64555 | 23 ft | 15 kts | 267° |
| 2026-04-25 06:26 | 26.20338 | 127.64442 | 22 ft | 15 kts | 266° |
| 2026-04-25 06:27 | 26.20332 | 127.64328 | 25 ft | 15 kts | 266° |
| 2026-04-25 06:27 | 26.20326 | 127.64214 | 23 ft | 15 kts | 267° |
| 2026-04-25 06:27 | 26.20321 | 127.64100 | 25 ft | 15 kts | 267° |
| 2026-04-25 06:27 | 26.20316 | 127.63986 | 25 ft | 15 kts | 267° |
| 2026-04-25 06:28 | 26.20312 | 127.63872 | 21 ft | 15 kts | 268° |
| 2026-04-25 06:28 | 26.20308 | 127.63759 | 25 ft | 15 kts | 268° |
| 2026-04-25 06:28 | 26.20304 | 127.63645 | 21 ft | 15 kts | 268° |
| 2026-04-25 06:28 | 26.20301 | 127.63531 | 22 ft | 15 kts | 268° |
| 2026-04-25 06:29 | 26.20261 | 127.63439 | 26 ft | 15 kts | 195° |
| 2026-04-25 06:29 | 26.20158 | 127.63438 | 22 ft | 15 kts | 178° |
| 2026-04-25 06:29 | 26.20055 | 127.63442 | 22 ft | 15 kts | 178° |
| 2026-04-25 06:29 | 26.19944 | 127.63446 | 23 ft | 17 kts | 178° |
| 2026-04-25 06:30 | 26.19821 | 127.63453 | 23 ft | 19 kts | 177° |
| 2026-04-25 06:30 | 26.19686 | 127.63460 | 22 ft | 20 kts | 177° |
| 2026-04-25 06:30 | 26.19542 | 127.63468 | 25 ft | 21 kts | 177° |
| 2026-04-25 06:30 | 26.19389 | 127.63475 | 23 ft | 23 kts | 178° |
| 2026-04-25 06:31 | 26.19229 | 127.63482 | 22 ft | 23 kts | 178° |
| 2026-04-25 06:31 | 26.19069 | 127.63489 | 23 ft | 23 kts | 178° |
| 2026-04-25 06:31 | 26.18910 | 127.63494 | 23 ft | 23 kts | 178° |
| 2026-04-25 06:31 | 26.18750 | 127.63502 | 23 ft | 23 kts | 176° |
| 2026-04-25 06:32 | 26.18590 | 127.63514 | 22 ft | 23 kts | 177° |
| 2026-04-25 06:32 | 26.18431 | 127.63521 | 23 ft | 23 kts | 178° |
| 2026-04-25 06:32 | 26.18271 | 127.63528 | 23 ft | 23 kts | 178° |
| 2026-04-25 06:32 | 26.18114 | 127.63534 | 23 ft | 16 kts | 178° |
| 2026-04-25 06:33 | 26.18060 | 127.63536 | 24 ft | 11 kts | 178° |
| 2026-04-25 06:33 | 26.17983 | 127.63541 | 22 ft | 11 kts | 174° |
| 2026-04-25 06:33 | 26.17911 | 127.63521 | 24 ft | 11 kts | 220° |
| 2026-04-25 06:33 | 26.17890 | 127.63463 | 26 ft | 1 kts | 264° |
| 2026-04-25 06:34 | 26.17890 | 127.63462 | 26 ft | 0 kts | 264° |
| 2026-04-25 06:36 | 26.17890 | 127.63461 | 26 ft | 2 kts | 264° |
| 2026-04-25 06:36 | 26.17889 | 127.63412 | 25 ft | 10 kts | 277° |
| 2026-04-25 06:36 | 26.17931 | 127.63358 | 25 ft | 12 kts | 344° |
| 2026-04-25 06:37 | 26.18119 | 127.63344 | 26 ft | 49 kts | 358° |
| 2026-04-25 06:37 | 26.18725 | 127.63306 | 20 ft | 126 kts | 356° |
| 2026-04-25 06:37 | 26.19796 | 127.63256 | 334 ft | 165 kts | 358° |
| 2026-04-25 06:37 | 26.20931 | 127.63203 | 1336 ft | 166 kts | 355° |
| 2026-04-25 06:38 | 26.22091 | 127.63146 | 2380 ft | 170 kts | 355° |
| 2026-04-25 06:38 | 26.23294 | 127.63063 | 3327 ft | 174 kts | 346° |
| 2026-04-25 06:38 | 26.24409 | 127.62439 | 3671 ft | 193 kts | 319° |
| 2026-04-25 06:38 | 26.25605 | 127.61515 | 3939 ft | 229 kts | 325° |
| 2026-04-25 06:39 | 26.27095 | 127.60588 | 4453 ft | 258 kts | 329° |
| 2026-04-25 06:39 | 26.28738 | 127.59685 | 5460 ft | 268 kts | 330° |
| 2026-04-25 06:39 | 26.30448 | 127.58819 | 6531 ft | 273 kts | 332° |
| 2026-04-25 06:39 | 26.32207 | 127.57982 | 7550 ft | 278 kts | 333° |
| 2026-04-25 06:40 | 26.34027 | 127.57151 | 8522 ft | 285 kts | 332° |
| 2026-04-25 06:40 | 26.35870 | 127.56321 | 9551 ft | 288 kts | 332° |
| 2026-04-25 06:40 | 26.37742 | 127.55482 | 10418 ft | 293 kts | 330° |
| 2026-04-25 06:40 | 26.39483 | 127.54277 | 10704 ft | 303 kts | 308° |
| 2026-04-25 06:41 | 26.40560 | 127.52199 | 10908 ft | 321 kts | 281° |
| 2026-04-25 06:41 | 26.40615 | 127.49719 | 11646 ft | 326 kts | 256° |
| 2026-04-25 06:41 | 26.39626 | 127.47447 | 12611 ft | 329 kts | 233° |
| 2026-04-25 06:41 | 26.38113 | 127.45507 | 13350 ft | 337 kts | 230° |
| 2026-04-25 06:42 | 26.36525 | 127.43542 | 14230 ft | 340 kts | 229° |
| 2026-04-25 06:42 | 26.34633 | 127.41924 | 14976 ft | 352 kts | 211° |
| 2026-04-25 06:42 | 26.32296 | 127.41003 | 15931 ft | 362 kts | 198° |
| 2026-04-25 06:42 | 26.29754 | 127.40755 | 16914 ft | 372 kts | 186° |
| 2026-04-25 06:43 | 26.27149 | 127.40819 | 17773 ft | 377 kts | 185° |
| 2026-04-25 06:43 | 26.24510 | 127.40915 | 18547 ft | 382 kts | 186° |
| 2026-04-25 06:43 | 26.21841 | 127.40984 | 19265 ft | 385 kts | 186° |
| 2026-04-25 06:43 | 26.19141 | 127.41023 | 19898 ft | 391 kts | 186° |
| 2026-04-25 06:44 | 26.16438 | 127.41053 | 20920 ft | 383 kts | 186° |
| 2026-04-25 06:44 | 26.13860 | 127.41085 | 22230 ft | 369 kts | 187° |
| 2026-04-25 06:44 | 26.11337 | 127.41114 | 23588 ft | 356 kts | 188° |
| 2026-04-25 06:44 | 26.08906 | 127.41141 | 24677 ft | 343 kts | 188° |
| 2026-04-25 06:45 | 26.06577 | 127.41148 | 25749 ft | 323 kts | 193° |
| 2026-04-25 06:45 | 26.04541 | 127.40638 | 27078 ft | 278 kts | 210° |
| 2026-04-25 06:45 | 26.02886 | 127.39714 | 28155 ft | 261 kts | 218° |
| 2026-04-25 06:45 | 26.01402 | 127.38555 | 28491 ft | 263 kts | 224° |
| 2026-04-25 06:46 | 26.00038 | 127.37170 | 28804 ft | 267 kts | 230° |
| 2026-04-25 06:46 | 25.98874 | 127.35561 | 29233 ft | 268 kts | 238° |
| 2026-04-25 06:46 | 25.98019 | 127.33742 | 29796 ft | 265 kts | 248° |
| 2026-04-25 06:46 | 25.97528 | 127.31756 | 30221 ft | 270 kts | 257° |
| 2026-04-25 06:47 | 25.97425 | 127.29645 | 30548 ft | 279 kts | 267° |
| 2026-04-25 06:47 | 25.97722 | 127.27479 | 30895 ft | 289 kts | 276° |
| 2026-04-25 06:47 | 25.98433 | 127.25348 | 31258 ft | 301 kts | 287° |
| 2026-04-25 06:47 | 25.99586 | 127.23338 | 31621 ft | 317 kts | 298° |
| 2026-04-25 06:48 | 26.01207 | 127.21565 | 31881 ft | 339 kts | 311° |
| 2026-04-25 06:48 | 26.03258 | 127.20133 | 32194 ft | 357 kts | 321° |
| 2026-04-25 06:48 | 26.05665 | 127.19117 | 32279 ft | 390 kts | 339° |
| 2026-04-25 06:48 | 26.08472 | 127.18909 | 32367 ft | 414 kts | 350° |
| 2026-04-25 06:49 | 26.11390 | 127.18943 | 32588 ft | 423 kts | 353° |
| 2026-04-25 06:49 | 26.14337 | 127.19581 | 32798 ft | 448 kts | 17° |
| 2026-04-25 06:49 | 26.17029 | 127.21421 | 33120 ft | 462 kts | 40° |
| 2026-04-25 06:49 | 26.19111 | 127.24150 | 33436 ft | 465 kts | 61° |
| 2026-04-25 06:50 | 26.20369 | 127.27443 | 33769 ft | 460 kts | 83° |
| 2026-04-25 06:50 | 26.20629 | 127.30918 | 34119 ft | 446 kts | 105° |
| 2026-04-25 06:50 | 26.19922 | 127.34194 | 34430 ft | 425 kts | 126° |
| 2026-04-25 06:50 | 26.18457 | 127.36876 | 34730 ft | 400 kts | 144° |
| 2026-04-25 06:51 | 26.16464 | 127.38875 | 35026 ft | 377 kts | 160° |
| 2026-04-25 06:51 | 26.14194 | 127.40224 | 35388 ft | 363 kts | 170° |
| 2026-04-25 06:51 | 26.11832 | 127.41063 | 35775 ft | 349 kts | 182° |
| 2026-04-25 06:51 | 26.09460 | 127.41214 | 36066 ft | 339 kts | 190° |
| 2026-04-25 06:52 | 26.07088 | 127.41205 | 36382 ft | 342 kts | 190° |
| 2026-04-25 06:52 | 26.04663 | 127.41552 | 36380 ft | 373 kts | 170° |
| 2026-04-25 06:52 | 26.02326 | 127.43127 | 36444 ft | 416 kts | 148° |
| 2026-04-25 06:52 | 26.00511 | 127.45814 | 36503 ft | 457 kts | 126° |
| 2026-04-25 06:53 | 25.99551 | 127.49308 | 36540 ft | 492 kts | 104° |
| 2026-04-25 06:53 | 25.99652 | 127.53198 | 36597 ft | 519 kts | 83° |
| 2026-04-25 06:53 | 26.00877 | 127.57035 | 36660 ft | 536 kts | 62° |
| 2026-04-25 06:53 | 26.03109 | 127.60383 | 36724 ft | 544 kts | 44° |
| 2026-04-25 06:54 | 26.05892 | 127.63249 | 36798 ft | 549 kts | 38° |
| 2026-04-25 06:54 | 26.11369 | 127.69320 | 36914 ft | 566 kts | 57° |
| 2026-04-25 06:54 | 26.13124 | 127.73234 | 37037 ft | 566 kts | 75° |
| 2026-04-25 06:55 | 26.14033 | 127.77469 | 37280 ft | 561 kts | 86° |
| 2026-04-25 06:55 | 26.14558 | 127.81748 | 37668 ft | 559 kts | 87° |
| 2026-04-25 06:55 | 26.15147 | 127.86034 | 38047 ft | 558 kts | 85° |
| 2026-04-25 06:55 | 26.16000 | 127.90254 | 38331 ft | 562 kts | 73° |
| 2026-04-25 06:56 | 26.17703 | 127.94183 | 38586 ft | 568 kts | 57° |
| 2026-04-25 06:56 | 26.20163 | 127.97609 | 38889 ft | 565 kts | 43° |
| 2026-04-25 06:56 | 26.23136 | 128.00315 | 39237 ft | 554 kts | 27° |
| 2026-04-25 06:56 | 26.26445 | 128.02471 | 39470 ft | 551 kts | 25° |
| 2026-04-25 06:57 | 26.29825 | 128.04625 | 39622 ft | 554 kts | 25° |
| 2026-04-25 06:57 | 26.33117 | 128.06753 | 39805 ft | 555 kts | 25° |
| 2026-04-25 06:57 | 26.36434 | 128.08944 | 40097 ft | 553 kts | 26° |
| 2026-04-25 06:57 | 26.39721 | 128.11154 | 40417 ft | 551 kts | 26° |
| 2026-04-25 06:58 | 26.42990 | 128.13374 | 40705 ft | 549 kts | 26° |
| 2026-04-25 06:58 | 26.46243 | 128.15592 | 40932 ft | 549 kts | 26° |
| 2026-04-25 06:58 | 26.49522 | 128.17825 | 41020 ft | 552 kts | 26° |
| 2026-04-25 06:59 | 26.56106 | 128.22302 | 41018 ft | 554 kts | 26° |
| 2026-04-25 06:59 | 26.62640 | 128.26750 | 41023 ft | 548 kts | 26° |
| 2026-04-25 07:00 | 26.68761 | 128.31910 | 41050 ft | 556 kts | 39° |
| 2026-04-25 07:00 | 26.74075 | 128.38224 | 41035 ft | 561 kts | 50° |
| 2026-04-25 07:01 | 26.78874 | 128.45136 | 41037 ft | 563 kts | 51° |
| 2026-04-25 07:01 | 26.83702 | 128.52061 | 41067 ft | 564 kts | 50° |
| 2026-04-25 07:02 | 26.88608 | 128.58962 | 41036 ft | 568 kts | 49° |
| 2026-04-25 07:02 | 26.94156 | 128.65206 | 41040 ft | 564 kts | 35° |
| 2026-04-25 07:03 | 27.00566 | 128.70156 | 41027 ft | 555 kts | 22° |
| 2026-04-25 07:03 | 27.07381 | 128.74224 | 41035 ft | 555 kts | 21° |
| 2026-04-25 07:04 | 27.14230 | 128.78260 | 41030 ft | 557 kts | 21° |
| 2026-04-25 07:04 | 27.21060 | 128.82368 | 41028 ft | 557 kts | 22° |
| 2026-04-25 07:05 | 27.27894 | 128.86529 | 41036 ft | 560 kts | 22° |
| 2026-04-25 07:05 | 27.34737 | 128.90711 | 41012 ft | 560 kts | 22° |
| 2026-04-25 07:06 | 27.41581 | 128.94895 | 41052 ft | 559 kts | 22° |
| 2026-04-25 07:06 | 27.48433 | 128.99082 | 41027 ft | 560 kts | 22° |
| 2026-04-25 07:07 | 27.55285 | 129.03276 | 41026 ft | 561 kts | 22° |
| 2026-04-25 07:07 | 27.62136 | 129.07477 | 41019 ft | 561 kts | 22° |
| 2026-04-25 07:08 | 27.68989 | 129.11685 | 41019 ft | 561 kts | 22° |
| 2026-04-25 07:08 | 27.75783 | 129.15865 | 41012 ft | 559 kts | 22° |
| 2026-04-25 07:09 | 27.82616 | 129.20071 | 41039 ft | 559 kts | 22° |
| 2026-04-25 07:09 | 27.89492 | 129.24310 | 41019 ft | 560 kts | 22° |
| 2026-04-25 07:10 | 27.96331 | 129.28533 | 41022 ft | 560 kts | 22° |
| 2026-04-25 07:10 | 28.03164 | 129.32760 | 41026 ft | 561 kts | 22° |
| 2026-04-25 07:11 | 28.10006 | 129.36998 | 41010 ft | 561 kts | 22° |
| 2026-04-25 07:11 | 28.16805 | 129.41216 | 41019 ft | 561 kts | 22° |
| 2026-04-25 07:12 | 28.23652 | 129.45489 | 40998 ft | 562 kts | 22° |
| 2026-04-25 07:12 | 28.33936 | 129.51868 | 40995 ft | 562 kts | 22° |
| 2026-04-25 07:13 | 28.40845 | 129.55990 | 40979 ft | 558 kts | 15° |
| 2026-04-25 07:13 | 28.48111 | 129.58801 | 40942 ft | 546 kts | 5° |
| 2026-04-25 07:14 | 28.55449 | 129.60247 | 40982 ft | 533 kts | 357° |
| 2026-04-25 07:14 | 28.62816 | 129.61275 | 40994 ft | 534 kts | 356° |
| 2026-04-25 07:15 | 28.70198 | 129.62344 | 41003 ft | 535 kts | 357° |
| 2026-04-25 07:15 | 28.77569 | 129.63469 | 41019 ft | 535 kts | 357° |
| 2026-04-25 07:16 | 28.84961 | 129.64612 | 41023 ft | 536 kts | 357° |
| 2026-04-25 07:16 | 28.92354 | 129.65753 | 41020 ft | 536 kts | 357° |
| 2026-04-25 07:17 | 28.99750 | 129.66893 | 41057 ft | 536 kts | 357° |
| 2026-04-25 07:17 | 29.07159 | 129.68035 | 41021 ft | 537 kts | 357° |
| 2026-04-25 07:18 | 29.14563 | 129.69178 | 41018 ft | 537 kts | 357° |
| 2026-04-25 07:18 | 29.21989 | 129.70293 | 41053 ft | 537 kts | 356° |
| 2026-04-25 07:19 | 29.29410 | 129.71399 | 41023 ft | 538 kts | 356° |
| 2026-04-25 07:19 | 29.35585 | 129.72327 | 41019 ft | 539 kts | 357° |
| 2026-04-25 07:20 | 29.43015 | 129.73466 | 41057 ft | 539 kts | 357° |
| 2026-04-25 07:20 | 29.50462 | 129.74623 | 41023 ft | 540 kts | 357° |
| 2026-04-25 07:21 | 29.59112 | 129.75968 | 41022 ft | 540 kts | 357° |
| 2026-04-25 07:21 | 29.65350 | 129.76937 | 41021 ft | 540 kts | 357° |
| 2026-04-25 07:22 | 29.72801 | 129.78094 | 41021 ft | 540 kts | 357° |
| 2026-04-25 07:22 | 29.80242 | 129.79253 | 41022 ft | 540 kts | 357° |
| 2026-04-25 07:23 | 29.87685 | 129.80413 | 41034 ft | 540 kts | 357° |
| 2026-04-25 07:23 | 29.95139 | 129.81577 | 41020 ft | 540 kts | 357° |
| 2026-04-25 07:24 | 30.02527 | 129.82712 | 41026 ft | 537 kts | 355° |
| 2026-04-25 07:24 | 30.09942 | 129.83529 | 41041 ft | 535 kts | 353° |
| 2026-04-25 07:25 | 30.17363 | 129.84256 | 41027 ft | 535 kts | 354° |
| 2026-04-25 07:25 | 30.24777 | 129.85049 | 41024 ft | 536 kts | 354° |
| 2026-04-25 07:26 | 30.32205 | 129.85871 | 41036 ft | 536 kts | 354° |
| 2026-04-25 07:26 | 30.39633 | 129.86683 | 41031 ft | 536 kts | 354° |
| 2026-04-25 07:27 | 30.47053 | 129.87492 | 41035 ft | 536 kts | 354° |
| 2026-04-25 07:27 | 30.54484 | 129.88303 | 41038 ft | 536 kts | 354° |
| 2026-04-25 07:28 | 30.61910 | 129.89118 | 41035 ft | 536 kts | 354° |
| 2026-04-25 07:28 | 30.69325 | 129.89932 | 41072 ft | 535 kts | 354° |
| 2026-04-25 07:29 | 30.76732 | 129.90745 | 41038 ft | 534 kts | 353° |
| 2026-04-25 07:29 | 30.84119 | 129.91558 | 41055 ft | 533 kts | 354° |
| 2026-04-25 07:30 | 30.91508 | 129.92371 | 41070 ft | 533 kts | 354° |
| 2026-04-25 07:30 | 30.98891 | 129.93183 | 41051 ft | 532 kts | 354° |
| 2026-04-25 07:31 | 31.06262 | 129.93996 | 41047 ft | 532 kts | 354° |
| 2026-04-25 07:31 | 31.13625 | 129.94809 | 41056 ft | 532 kts | 354° |
| 2026-04-25 07:32 | 31.20985 | 129.95623 | 41052 ft | 531 kts | 354° |
| 2026-04-25 07:32 | 31.28345 | 129.96438 | 41044 ft | 531 kts | 354° |
| 2026-04-25 07:33 | 31.35686 | 129.97115 | 41054 ft | 528 kts | 352° |
| 2026-04-25 07:33 | 31.43015 | 129.97647 | 41053 ft | 527 kts | 352° |
| 2026-04-25 07:34 | 31.50338 | 129.98190 | 41052 ft | 527 kts | 352° |
| 2026-04-25 07:34 | 31.57618 | 129.98758 | 41057 ft | 528 kts | 352° |
| 2026-04-25 07:35 | 31.64988 | 129.99346 | 41055 ft | 528 kts | 352° |
| 2026-04-25 07:35 | 31.72268 | 129.99926 | 41057 ft | 527 kts | 352° |
| 2026-04-25 07:36 | 31.79584 | 130.00507 | 41053 ft | 527 kts | 352° |
| 2026-04-25 07:36 | 31.86910 | 130.01089 | 41056 ft | 527 kts | 352° |
| 2026-04-25 07:37 | 31.94234 | 130.01672 | 41082 ft | 528 kts | 352° |
| 2026-04-25 07:37 | 32.01566 | 130.02257 | 41063 ft | 528 kts | 352° |
| 2026-04-25 07:38 | 32.05256 | 130.02549 | 40637 ft | 535 kts | 352° |
| 2026-04-25 07:38 | 32.08986 | 130.02841 | 39938 ft | 538 kts | 351° |
| 2026-04-25 07:38 | 32.12719 | 130.03141 | 39305 ft | 538 kts | 351° |
| 2026-04-25 07:38 | 32.16457 | 130.03443 | 38650 ft | 540 kts | 351° |
| 2026-04-25 07:39 | 32.20215 | 130.03745 | 37873 ft | 541 kts | 351° |
| 2026-04-25 07:39 | 32.23974 | 130.04048 | 37168 ft | 541 kts | 351° |
| 2026-04-25 07:39 | 32.27733 | 130.04352 | 36450 ft | 542 kts | 351° |
| 2026-04-25 07:39 | 32.31494 | 130.04656 | 35734 ft | 542 kts | 351° |
| 2026-04-25 07:40 | 32.35259 | 130.04957 | 34935 ft | 545 kts | 351° |
| 2026-04-25 07:40 | 32.39051 | 130.05260 | 34015 ft | 549 kts | 352° |
| 2026-04-25 07:40 | 32.42880 | 130.05564 | 32874 ft | 553 kts | 353° |
| 2026-04-25 07:40 | 32.46722 | 130.05881 | 31982 ft | 552 kts | 354° |
| 2026-04-25 07:41 | 32.50524 | 130.06199 | 31449 ft | 542 kts | 354° |
| 2026-04-25 07:41 | 32.54253 | 130.06503 | 30895 ft | 535 kts | 354° |
| 2026-04-25 07:41 | 32.57932 | 130.06688 | 30294 ft | 521 kts | 350° |
| 2026-04-25 07:41 | 32.61512 | 130.06497 | 29616 ft | 508 kts | 345° |
| 2026-04-25 07:42 | 32.64975 | 130.05974 | 28874 ft | 495 kts | 340° |
| 2026-04-25 07:42 | 32.68289 | 130.05110 | 28211 ft | 486 kts | 338° |
| 2026-04-25 07:42 | 32.71571 | 130.04213 | 27553 ft | 481 kts | 338° |
| 2026-04-25 07:42 | 32.74824 | 130.03350 | 26928 ft | 477 kts | 339° |
| 2026-04-25 07:43 | 32.78055 | 130.02520 | 26304 ft | 473 kts | 340° |
| 2026-04-25 07:43 | 32.81262 | 130.01706 | 25664 ft | 469 kts | 341° |
| 2026-04-25 07:43 | 32.84445 | 130.00902 | 25027 ft | 466 kts | 341° |
| 2026-04-25 07:43 | 32.87605 | 130.00104 | 24406 ft | 463 kts | 341° |
| 2026-04-25 07:44 | 32.90704 | 129.99319 | 23785 ft | 460 kts | 342° |
| 2026-04-25 07:44 | 32.93814 | 129.98531 | 23077 ft | 454 kts | 342° |
| 2026-04-25 07:44 | 32.96887 | 129.97758 | 22396 ft | 434 kts | 342° |
| 2026-04-25 07:44 | 32.99744 | 129.97040 | 21834 ft | 417 kts | 342° |
| 2026-04-25 07:45 | 33.02541 | 129.96330 | 21278 ft | 408 kts | 342° |
| 2026-04-25 07:45 | 33.05314 | 129.95618 | 20731 ft | 409 kts | 342° |
| 2026-04-25 07:45 | 33.08097 | 129.94904 | 20188 ft | 409 kts | 343° |
| 2026-04-25 07:45 | 33.10872 | 129.94193 | 19636 ft | 408 kts | 343° |
| 2026-04-25 07:46 | 33.13649 | 129.93485 | 19100 ft | 408 kts | 343° |
| 2026-04-25 07:46 | 33.16421 | 129.92779 | 18558 ft | 408 kts | 343° |
| 2026-04-25 07:46 | 33.19195 | 129.92071 | 17950 ft | 408 kts | 344° |
| 2026-04-25 07:46 | 33.21968 | 129.91357 | 17382 ft | 406 kts | 345° |
| 2026-04-25 07:47 | 33.24722 | 129.90644 | 16815 ft | 404 kts | 345° |
| 2026-04-25 07:47 | 33.27459 | 129.89934 | 16291 ft | 402 kts | 345° |
| 2026-04-25 07:47 | 33.30182 | 129.89228 | 15758 ft | 400 kts | 345° |
| 2026-04-25 07:47 | 33.32875 | 129.88529 | 15224 ft | 389 kts | 346° |
| 2026-04-25 07:48 | 33.35464 | 129.87860 | 14721 ft | 372 kts | 346° |
| 2026-04-25 07:48 | 33.37942 | 129.87217 | 14305 ft | 355 kts | 346° |
| 2026-04-25 07:48 | 33.40254 | 129.86618 | 14146 ft | 326 kts | 346° |
| 2026-04-25 07:48 | 33.42396 | 129.86062 | 13934 ft | 304 kts | 346° |
| 2026-04-25 07:49 | 33.44409 | 129.85538 | 13511 ft | 290 kts | 346° |
| 2026-04-25 07:49 | 33.46367 | 129.85023 | 12863 ft | 287 kts | 345° |
| 2026-04-25 07:49 | 33.48331 | 129.84743 | 12176 ft | 287 kts | 5° |
| 2026-04-25 07:49 | 33.50243 | 129.85339 | 11650 ft | 280 kts | 17° |
| 2026-04-25 07:50 | 33.52082 | 129.86026 | 11246 ft | 271 kts | 16° |
| 2026-04-25 07:50 | 33.53844 | 129.86665 | 10913 ft | 259 kts | 16° |
| 2026-04-25 07:50 | 33.55566 | 129.87286 | 10423 ft | 256 kts | 17° |
| 2026-04-25 07:50 | 33.57265 | 129.87899 | 9873 ft | 256 kts | 17° |
| 2026-04-25 07:51 | 33.58971 | 129.88514 | 9285 ft | 255 kts | 17° |
| 2026-04-25 07:51 | 33.60678 | 129.89129 | 8905 ft | 257 kts | 17° |
| 2026-04-25 07:51 | 33.62404 | 129.89748 | 8475 ft | 264 kts | 17° |
| 2026-04-25 07:51 | 33.64176 | 129.90384 | 8269 ft | 263 kts | 18° |
| 2026-04-25 07:52 | 33.65889 | 129.90998 | 8250 ft | 252 kts | 18° |
| 2026-04-25 07:52 | 33.67558 | 129.91600 | 8261 ft | 249 kts | 19° |
| 2026-04-25 07:52 | 33.69212 | 129.92194 | 8245 ft | 247 kts | 18° |
| 2026-04-25 07:52 | 33.70877 | 129.92792 | 8080 ft | 249 kts | 19° |
| 2026-04-25 07:53 | 33.72522 | 129.93383 | 8040 ft | 245 kts | 19° |
| 2026-04-25 07:53 | 33.74145 | 129.93967 | 8041 ft | 242 kts | 18° |
| 2026-04-25 07:53 | 33.75761 | 129.94548 | 8025 ft | 246 kts | 19° |
| 2026-04-25 07:53 | 33.77413 | 129.95143 | 8030 ft | 249 kts | 18° |
| 2026-04-25 07:54 | 33.79102 | 129.95521 | 8022 ft | 246 kts | 5° |
| 2026-04-25 07:54 | 33.80806 | 129.95624 | 8015 ft | 245 kts | 3° |
| 2026-04-25 07:54 | 33.82508 | 129.95719 | 8014 ft | 245 kts | 4° |
| 2026-04-25 07:54 | 33.84209 | 129.95834 | 8020 ft | 247 kts | 5° |
| 2026-04-25 07:55 | 33.85927 | 129.95961 | 8029 ft | 247 kts | 4° |
| 2026-04-25 07:55 | 33.87632 | 129.96120 | 8017 ft | 246 kts | 13° |
| 2026-04-25 07:55 | 33.89219 | 129.96854 | 8037 ft | 243 kts | 31° |
| 2026-04-25 07:55 | 33.90725 | 129.97833 | 8033 ft | 248 kts | 30° |
| 2026-04-25 07:56 | 33.92267 | 129.98774 | 8042 ft | 248 kts | 28° |
| 2026-04-25 07:56 | 33.93814 | 129.99700 | 7940 ft | 247 kts | 28° |
| 2026-04-25 07:56 | 33.95304 | 130.00671 | 7613 ft | 241 kts | 40° |
| 2026-04-25 07:56 | 33.96267 | 130.02241 | 7204 ft | 236 kts | 75° |
| 2026-04-25 07:57 | 33.96375 | 130.04178 | 6922 ft | 227 kts | 104° |
| 2026-04-25 07:57 | 33.95831 | 130.05927 | 6682 ft | 220 kts | 123° |
| 2026-04-25 07:57 | 33.94950 | 130.07424 | 6345 ft | 220 kts | 129° |
| 2026-04-25 07:57 | 33.94001 | 130.08873 | 5977 ft | 221 kts | 130° |
| 2026-04-25 07:58 | 33.93047 | 130.10315 | 5664 ft | 218 kts | 130° |
| 2026-04-25 07:58 | 33.92131 | 130.11707 | 5208 ft | 216 kts | 130° |
| 2026-04-25 07:58 | 33.91204 | 130.13122 | 5083 ft | 211 kts | 130° |
| 2026-04-25 07:58 | 33.90290 | 130.14521 | 4930 ft | 213 kts | 129° |
| 2026-04-25 07:59 | 33.89371 | 130.15933 | 4781 ft | 216 kts | 129° |
| 2026-04-25 07:59 | 33.88438 | 130.17369 | 4637 ft | 218 kts | 129° |
| 2026-04-25 07:59 | 33.87502 | 130.18814 | 4492 ft | 218 kts | 129° |
| 2026-04-25 07:59 | 33.86580 | 130.20239 | 4325 ft | 215 kts | 129° |
| 2026-04-25 08:00 | 33.85667 | 130.21651 | 4188 ft | 213 kts | 129° |
| 2026-04-25 08:00 | 33.84752 | 130.23067 | 4050 ft | 215 kts | 129° |
| 2026-04-25 08:00 | 33.83846 | 130.24468 | 3913 ft | 215 kts | 128° |
| 2026-04-25 08:00 | 33.82935 | 130.25877 | 3773 ft | 213 kts | 128° |
| 2026-04-25 08:01 | 33.82026 | 130.27283 | 3611 ft | 212 kts | 128° |
| 2026-04-25 08:01 | 33.81136 | 130.28657 | 3465 ft | 204 kts | 128° |
| 2026-04-25 08:01 | 33.80257 | 130.29927 | 3335 ft | 192 kts | 137° |
| 2026-04-25 08:01 | 33.79215 | 130.30844 | 3248 ft | 179 kts | 145° |
| 2026-04-25 08:02 | 33.78168 | 130.31640 | 3102 ft | 178 kts | 148° |
| 2026-04-25 08:02 | 33.77094 | 130.32408 | 2970 ft | 180 kts | 148° |
| 2026-04-25 08:02 | 33.76013 | 130.33157 | 2861 ft | 180 kts | 149° |
| 2026-04-25 08:02 | 33.74922 | 130.33907 | 2737 ft | 180 kts | 148° |
| 2026-04-25 08:03 | 33.73839 | 130.34650 | 2608 ft | 179 kts | 148° |
| 2026-04-25 08:03 | 33.72759 | 130.35388 | 2507 ft | 178 kts | 148° |
| 2026-04-25 08:03 | 33.71685 | 130.36123 | 2367 ft | 180 kts | 147° |
| 2026-04-25 08:03 | 33.70609 | 130.36858 | 2256 ft | 175 kts | 148° |
| 2026-04-25 08:04 | 33.69543 | 130.37590 | 2125 ft | 178 kts | 148° |
| 2026-04-25 08:04 | 33.68465 | 130.38325 | 2024 ft | 183 kts | 148° |
| 2026-04-25 08:04 | 33.67339 | 130.39095 | 1729 ft | 184 kts | 147° |
| 2026-04-25 08:04 | 33.66235 | 130.39849 | 1498 ft | 181 kts | 146° |
| 2026-04-25 08:05 | 33.65198 | 130.40556 | 1278 ft | 163 kts | 146° |
| 2026-04-25 08:05 | 33.64268 | 130.41192 | 1079 ft | 146 kts | 147° |
| 2026-04-25 08:05 | 33.63410 | 130.41782 | 894 ft | 139 kts | 150° |
| 2026-04-25 08:05 | 33.62587 | 130.42387 | 661 ft | 138 kts | 150° |
| 2026-04-25 08:06 | 33.61758 | 130.42964 | 625 ft | 142 kts | 158° |
| 2026-04-25 08:06 | 33.60855 | 130.43552 | 406 ft | 148 kts | 158° |
| 2026-04-25 08:06 | 33.59977 | 130.44130 | 198 ft | 142 kts | 156° |
| 2026-04-25 08:06 | 33.59428 | 130.44509 | 67 ft | 129 kts | 156° |
| 2026-04-25 08:07 | 33.58733 | 130.44976 | 39 ft | 95 kts | 151° |
| 2026-04-25 08:07 | 33.58372 | 130.45259 | 41 ft | 27 kts | 125° |
| 2026-04-25 08:07 | 33.58309 | 130.45407 | 38 ft | 10 kts | 92° |
| 2026-04-25 08:07 | 33.58359 | 130.45444 | 38 ft | 10 kts | 348° |
| 2026-04-25 08:08 | 33.58422 | 130.45410 | 39 ft | 10 kts | 332° |
| 2026-04-25 08:08 | 33.58503 | 130.45356 | 39 ft | 10 kts | 332° |
| 2026-04-25 08:08 | 33.58544 | 130.45329 | 37 ft | 10 kts | 330° |
| 2026-04-25 08:08 | 33.58604 | 130.45286 | 39 ft | 10 kts | 329° |
| 2026-04-25 08:09 | 33.58665 | 130.45246 | 40 ft | 10 kts | 332° |
| 2026-04-25 08:09 | 33.58725 | 130.45205 | 40 ft | 10 kts | 329° |
| 2026-04-25 08:09 | 33.58789 | 130.45161 | 37 ft | 12 kts | 330° |
| 2026-04-25 08:09 | 33.58872 | 130.45104 | 35 ft | 15 kts | 330° |
| 2026-04-25 08:10 | 33.58967 | 130.45039 | 34 ft | 16 kts | 330° |
| 2026-04-25 08:10 | 33.59068 | 130.44973 | 30 ft | 17 kts | 332° |
| 2026-04-25 08:10 | 33.59173 | 130.44902 | 29 ft | 17 kts | 329° |
| 2026-04-25 08:10 | 33.59276 | 130.44828 | 29 ft | 17 kts | 329° |
| 2026-04-25 08:11 | 33.59381 | 130.44755 | 28 ft | 17 kts | 331° |
| 2026-04-25 08:11 | 33.59486 | 130.44685 | 31 ft | 17 kts | 330° |
| 2026-04-25 08:11 | 33.59591 | 130.44614 | 30 ft | 17 kts | 330° |
| 2026-04-25 08:11 | 33.59682 | 130.44551 | 31 ft | 12 kts | 330° |
| 2026-04-25 08:12 | 33.59754 | 130.44525 | 31 ft | 10 kts | 14° |
| 2026-04-25 08:12 | 33.59818 | 130.44555 | 31 ft | 10 kts | 349° |
| 2026-04-25 08:12 | 33.59867 | 130.44542 | 30 ft | 6 kts | 24° |
| 2026-04-25 08:12 | 33.59891 | 130.44582 | 30 ft | 6 kts | 58° |
| 2026-04-25 08:13 | 33.59903 | 130.44605 | 30 ft | 0 kts | 60° |
| 2026-04-25 08:16 | 33.59629 | 130.44787 | 29 ft | 0 kts | 61° |